createdAt,value
2022-08-09T00:01:23.050Z,24.28
2022-08-09T00:04:03.473Z,24.43
2022-08-09T00:06:38.678Z,24.25
2022-08-09T00:09:13.366Z,23.96
2022-08-09T00:12:03.697Z,24.08
2022-08-09T00:14:38.204Z,23.97
2022-08-09T00:17:06.968Z,24.07
2022-08-09T00:19:35.551Z,24.06
2022-08-09T00:22:04.426Z,24.04
2022-08-09T00:24:32.723Z,24.09
2022-08-09T00:27:01.952Z,24.15
2022-08-09T00:30:09.952Z,23.94
2022-08-09T00:32:26.976Z,24.08
2022-08-09T00:35:05.516Z,24.16
2022-08-09T00:37:33.489Z,24.02
2022-08-09T00:40:12.293Z,24.27
2022-08-09T00:44:10.445Z,23.65
2022-08-09T00:45:34.922Z,24.05
2022-08-09T00:48:05.590Z,23.86
2022-08-09T00:50:33.728Z,24.06
2022-08-09T00:53:10.326Z,24.03
2022-08-09T00:56:05.130Z,24.10
2022-08-09T00:58:27.886Z,23.60
2022-08-09T01:00:59.019Z,23.57
2022-08-09T01:03:36.425Z,23.85
2022-08-09T01:06:17.560Z,23.59
2022-08-09T01:08:55.946Z,23.44
2022-08-09T01:11:39.665Z,23.80
2022-08-09T01:14:17.429Z,23.59
2022-08-09T01:16:51.009Z,23.61
2022-08-09T01:19:57.265Z,23.55
2022-08-09T01:22:46.758Z,23.63
2022-08-09T01:25:48.835Z,23.28
2022-08-09T01:28:22.564Z,23.37
2022-08-09T01:30:59.104Z,23.67
2022-08-09T01:33:35.195Z,23.59
2022-08-09T01:36:14.990Z,23.63
2022-08-09T01:38:47.890Z,23.52
2022-08-09T01:41:26.083Z,23.27
2022-08-09T01:44:04.968Z,23.40
2022-08-09T01:46:36.323Z,23.44
2022-08-09T01:49:14.981Z,23.02
2022-08-09T01:51:54.419Z,23.24
2022-08-09T01:54:30.238Z,23.53
2022-08-09T01:57:11.990Z,23.22
2022-08-09T01:59:51.521Z,23.34
2022-08-09T02:02:31.177Z,23.21
2022-08-09T02:05:05.439Z,23.17
2022-08-09T02:08:39.538Z,23.23
2022-08-09T02:10:56.887Z,23.18
2022-08-09T02:13:37.549Z,22.76
2022-08-09T02:16:11.438Z,22.95
2022-08-09T02:18:42.903Z,23.26
2022-08-09T02:21:22.090Z,22.98
2022-08-09T02:23:54.828Z,22.91
2022-08-09T02:26:27.664Z,23.05
2022-08-09T02:28:59.911Z,22.93
2022-08-09T02:31:35.583Z,22.94
2022-08-09T02:34:25.707Z,23.16
2022-08-09T02:37:05.340Z,23.08
2022-08-09T02:39:42.048Z,23.13
2022-08-09T02:42:17.197Z,23.01
2022-08-09T02:44:49.440Z,23.10
2022-08-09T02:47:20.045Z,22.70
2022-08-09T02:50:02.025Z,22.68
2022-08-09T02:52:37.499Z,23.03
2022-08-09T02:55:20.590Z,23.02
2022-08-09T02:58:00.260Z,22.87
2022-08-09T03:00:58.108Z,23.10
2022-08-09T03:04:13.204Z,22.71
2022-08-09T03:06:17.909Z,22.92
2022-08-09T03:08:48.284Z,23.08
2022-08-09T03:12:06.693Z,22.97
2022-08-09T03:14:10.055Z,23.09
2022-08-09T03:16:42.011Z,23.34
2022-08-09T03:19:52.865Z,23.29
2022-08-09T03:22:12.326Z,23.02
2022-08-09T03:25:16.153Z,23.27
2022-08-09T03:27:49.116Z,23.23
2022-08-09T03:30:29.638Z,23.22
2022-08-09T03:33:11.066Z,23.31
2022-08-09T03:36:11.346Z,23.04
2022-08-09T03:38:30.500Z,23.04
2022-08-09T03:40:58.610Z,22.72
2022-08-09T03:43:31.449Z,23.04
2022-08-09T03:46:27.283Z,23.18
2022-08-09T03:48:55.184Z,23.07
2022-08-09T03:51:56.535Z,23.07
2022-08-09T03:54:14.866Z,22.64
2022-08-09T03:56:46.652Z,22.35
2022-08-09T03:59:20.863Z,22.88
2022-08-09T04:01:56.599Z,23.08
2022-08-09T04:04:32.539Z,23.05
2022-08-09T04:07:04.967Z,22.78
2022-08-09T04:09:41.622Z,22.89
2022-08-09T04:12:30.976Z,22.93
2022-08-09T04:15:02.586Z,22.79
2022-08-09T04:17:42.420Z,22.40
2022-08-09T04:20:13.689Z,22.59
2022-08-09T04:22:44.294Z,22.40
2022-08-09T04:25:13.172Z,23.03
2022-08-09T04:27:49.008Z,22.47
2022-08-09T04:30:28.872Z,22.53
2022-08-09T04:32:56.955Z,22.49
2022-08-09T04:35:24.908Z,22.48
2022-08-09T04:37:57.029Z,22.86
2022-08-09T04:40:45.275Z,23.05
2022-08-09T04:43:15.720Z,22.86
2022-08-09T04:45:53.723Z,23.14
2022-08-09T04:48:23.886Z,23.27
2022-08-09T04:51:01.686Z,23.28
2022-08-09T04:53:31.358Z,23.46
2022-08-09T04:55:59.880Z,23.24
2022-08-09T04:58:29.903Z,23.42
2022-08-09T05:01:01.715Z,23.46
2022-08-09T05:03:40.798Z,23.71
2022-08-09T05:06:27.211Z,23.93
2022-08-09T05:09:00.487Z,24.20
2022-08-09T05:11:30.400Z,24.67
2022-08-09T05:13:58.817Z,25.09
2022-08-09T05:16:31.670Z,24.64
2022-08-09T05:19:00.724Z,24.91
2022-08-09T05:21:46.852Z,25.35
2022-08-09T05:24:15.922Z,25.55
2022-08-09T05:26:46.293Z,25.21
2022-08-09T05:29:21.318Z,25.69
2022-08-09T05:31:58.869Z,25.58
2022-08-09T05:34:31.067Z,25.75
2022-08-09T05:37:06.621Z,25.82
2022-08-09T05:39:43.867Z,25.92
2022-08-09T05:42:20.864Z,26.11
2022-08-09T05:44:52.211Z,26.84
2022-08-09T05:47:21.779Z,26.71
2022-08-09T05:50:29.934Z,26.58
2022-08-09T05:52:41.991Z,26.92
2022-08-09T05:55:20.621Z,27.09
2022-08-09T05:57:51.342Z,26.99
2022-08-09T06:00:28.963Z,27.14
2022-08-09T06:03:02.725Z,27.31
2022-08-09T06:05:57.073Z,27.34
2022-08-09T06:08:24.392Z,26.88
2022-08-09T06:10:55.415Z,27.58
2022-08-09T06:13:24.703Z,27.33
2022-08-09T06:15:52.981Z,27.20
2022-08-09T06:18:24.808Z,27.14
2022-08-09T06:20:58.433Z,27.35
2022-08-09T06:23:57.902Z,27.40
2022-08-09T06:26:21.113Z,27.17
2022-08-09T06:28:59.894Z,27.08
2022-08-09T06:31:39.828Z,27.41
2022-08-09T06:34:22.587Z,27.24
2022-08-09T06:36:59.039Z,27.39
2022-08-09T06:39:48.421Z,27.14
2022-08-09T06:42:24.415Z,27.12
2022-08-09T06:44:54.341Z,26.89
2022-08-09T06:47:23.584Z,27.27
2022-08-09T06:50:13.637Z,26.75
2022-08-09T06:52:46.920Z,27.19
2022-08-09T06:55:17.408Z,27.24
2022-08-09T06:58:03.388Z,27.14
2022-08-09T07:00:55.528Z,27.04
2022-08-09T07:03:27.652Z,27.16
2022-08-09T07:06:03.513Z,27.45
2022-08-09T07:08:37.193Z,27.45
2022-08-09T07:11:08.152Z,27.27
2022-08-09T07:13:44.927Z,27.68
2022-08-09T07:16:41.008Z,28.00
2022-08-09T07:19:15.477Z,28.13
2022-08-09T07:21:57.928Z,28.29
2022-08-09T07:24:32.536Z,28.42
2022-08-09T07:27:27.263Z,28.17
2022-08-09T07:30:00.393Z,28.79
2022-08-09T07:32:32.974Z,28.58
2022-08-09T07:35:10.334Z,28.46
2022-08-09T07:37:45.626Z,28.89
2022-08-09T07:40:17.904Z,28.99
2022-08-09T07:42:50.099Z,28.80
2022-08-09T07:45:23.741Z,28.47
2022-08-09T07:48:25.810Z,28.54
2022-08-09T07:51:10.116Z,28.17
2022-08-09T07:54:04.991Z,28.05
2022-08-09T07:56:44.715Z,28.39
2022-08-09T07:59:33.690Z,28.09
2022-08-09T08:02:05.484Z,28.39
2022-08-09T08:04:34.272Z,28.48
2022-08-09T08:07:09.472Z,28.69
2022-08-09T08:09:55.287Z,28.98
2022-08-09T08:12:43.193Z,28.49
2022-08-09T08:15:16.928Z,28.41
2022-08-09T08:17:53.570Z,28.84
2022-08-09T08:20:28.692Z,28.83
2022-08-09T08:23:01.640Z,28.88
2022-08-09T08:25:43.815Z,29.30
2022-08-09T08:28:14.271Z,29.08
2022-08-09T08:30:44.554Z,29.38
2022-08-09T08:33:24.092Z,29.18
2022-08-09T08:36:00.479Z,29.52
2022-08-09T08:38:31.666Z,29.98
2022-08-09T08:41:01.777Z,29.48
2022-08-09T08:43:34.845Z,29.74
2022-08-09T08:46:31.974Z,29.91
2022-08-09T08:48:55.555Z,29.86
2022-08-09T08:51:23.968Z,30.00
2022-08-09T08:54:04.308Z,29.86
2022-08-09T08:56:37.888Z,30.07
2022-08-09T08:59:19.892Z,30.26
2022-08-09T09:01:52.983Z,29.87
2022-08-09T09:04:31.368Z,30.27
2022-08-09T09:07:10.062Z,30.39
2022-08-09T09:09:58.371Z,30.65
2022-08-09T09:12:34.246Z,30.69
2022-08-09T09:15:05.764Z,30.74
2022-08-09T09:17:48.571Z,30.42
2022-08-09T09:20:17.345Z,30.62
2022-08-09T09:22:56.797Z,30.68
2022-08-09T09:26:01.716Z,30.97
2022-08-09T09:29:02.875Z,31.16
2022-08-09T09:32:14.782Z,30.81
2022-08-09T09:34:14.621Z,31.16
2022-08-09T09:36:50.925Z,30.68
2022-08-09T09:39:25.597Z,30.33
2022-08-09T09:42:23.344Z,30.44
2022-08-09T09:45:00.366Z,30.63
2022-08-09T09:47:29.135Z,30.98
2022-08-09T09:50:14.613Z,31.12
2022-08-09T09:52:56.721Z,30.62
2022-08-09T09:55:32.474Z,31.01
2022-08-09T09:58:18.221Z,31.08
2022-08-09T10:00:54.441Z,30.55
2022-08-09T10:03:59.606Z,30.91
2022-08-09T10:06:39.169Z,30.59
2022-08-09T10:09:22.073Z,30.53
2022-08-09T10:12:11.731Z,30.77
2022-08-09T10:14:47.713Z,30.38
2022-08-09T10:17:50.470Z,30.58
2022-08-09T10:20:36.155Z,30.21
2022-08-09T10:23:22.139Z,30.44
2022-08-09T10:26:07.112Z,30.26
2022-08-09T10:28:40.235Z,30.38
2022-08-09T10:34:10.692Z,30.56
2022-08-09T10:36:49.947Z,30.27
2022-08-09T10:39:19.173Z,30.21
2022-08-09T10:41:48.305Z,30.40
2022-08-09T10:44:23.100Z,30.68
2022-08-09T10:47:01.130Z,30.62
2022-08-09T10:49:51.434Z,30.65
2022-08-09T10:52:44.932Z,30.34
2022-08-09T10:55:26.733Z,30.53
2022-08-09T10:57:59.857Z,30.05
2022-08-09T11:01:11.039Z,30.58
2022-08-09T11:03:49.883Z,30.61
2022-08-09T11:06:24.316Z,31.02
2022-08-09T11:08:53.818Z,30.36
2022-08-09T11:11:23.351Z,30.51
2022-08-09T11:14:32.046Z,31.00
2022-08-09T11:17:00.365Z,31.67
2022-08-09T11:20:10.480Z,31.32
2022-08-09T11:22:41.574Z,31.25
2022-08-09T11:25:12.082Z,31.43
2022-08-09T11:28:02.393Z,31.68
2022-08-09T11:30:38.100Z,31.36
2022-08-09T11:33:18.073Z,31.38
2022-08-09T11:35:50.047Z,31.65
2022-08-09T11:38:28.471Z,31.20
2022-08-09T11:41:13.779Z,31.47
2022-08-09T11:43:48.809Z,31.46
2022-08-09T11:46:26.662Z,31.17
2022-08-09T11:49:05.363Z,31.08
2022-08-09T11:53:03.321Z,30.87
2022-08-09T11:55:51.531Z,30.51
2022-08-09T11:58:19.974Z,30.76
2022-08-09T12:01:08.938Z,30.38
2022-08-09T12:03:57.484Z,30.78
2022-08-09T12:06:32.686Z,30.35
2022-08-09T12:09:19.184Z,30.14
2022-08-09T12:12:03.288Z,29.80
2022-08-09T12:14:40.461Z,29.87
2022-08-09T12:17:34.280Z,29.93
2022-08-09T12:20:21.548Z,29.69
2022-08-09T12:22:55.698Z,29.98
2022-08-09T12:25:32.017Z,29.94
2022-08-09T12:29:14.071Z,29.46
2022-08-09T12:31:10.958Z,29.72
2022-08-09T12:34:01.191Z,29.67
2022-08-09T12:36:33.852Z,30.09
2022-08-09T12:39:14.604Z,29.89
2022-08-09T12:41:42.703Z,30.04
2022-08-09T12:44:12.944Z,29.91
2022-08-09T12:46:49.208Z,29.84
2022-08-09T12:49:20.950Z,30.19
2022-08-09T12:52:01.024Z,29.93
2022-08-09T12:56:12.893Z,29.78
2022-08-09T12:57:46.481Z,29.51
2022-08-09T13:00:19.180Z,29.30
2022-08-09T13:02:58.264Z,29.74
2022-08-09T13:05:50.923Z,29.73
2022-08-09T13:08:21.319Z,29.85
2022-08-09T13:11:13.100Z,29.53
2022-08-09T13:14:38.001Z,29.64
2022-08-09T13:16:44.888Z,29.51
2022-08-09T13:20:06.822Z,29.73
2022-08-09T13:22:37.020Z,29.45
2022-08-09T13:25:13.727Z,29.45
2022-08-09T13:27:48.620Z,29.37
2022-08-09T13:30:49.487Z,29.40
2022-08-09T13:33:23.517Z,29.56
2022-08-09T13:36:24.232Z,29.57
2022-08-09T13:38:57.238Z,29.23
2022-08-09T13:41:56.471Z,29.49
2022-08-09T13:44:16.627Z,29.48
2022-08-09T13:47:29.521Z,29.63
2022-08-09T13:49:39.730Z,29.69
2022-08-09T13:52:24.972Z,29.56
2022-08-09T13:54:59.380Z,29.53
2022-08-09T13:57:35.554Z,29.70
2022-08-09T14:00:16.807Z,29.98
2022-08-09T14:03:04.013Z,29.74
2022-08-09T14:06:00.376Z,29.82
2022-08-09T14:08:28.076Z,29.85
2022-08-09T14:10:56.677Z,29.85
2022-08-09T14:14:14.657Z,29.86
2022-08-09T14:16:28.690Z,29.49
2022-08-09T14:18:58.147Z,29.70
2022-08-09T14:21:29.558Z,29.66
2022-08-09T14:24:01.339Z,29.55
2022-08-09T14:26:38.472Z,29.62
2022-08-09T14:30:04.196Z,29.98
2022-08-09T14:32:06.035Z,29.74
2022-08-09T14:34:41.186Z,29.68
2022-08-09T14:37:09.638Z,29.65
2022-08-09T14:39:47.791Z,29.38
2022-08-09T14:42:30.898Z,29.47
2022-08-09T14:46:39.558Z,29.81
2022-08-09T14:47:57.980Z,29.78
2022-08-09T14:50:30.372Z,29.31
2022-08-09T14:53:01.004Z,29.54
2022-08-09T14:55:32.626Z,29.45
2022-08-09T14:58:05.085Z,29.21
2022-08-09T15:00:36.731Z,29.10
2022-08-09T15:03:10.583Z,29.66
2022-08-09T15:05:39.581Z,29.46
2022-08-09T15:08:16.483Z,29.46
2022-08-09T15:11:00.855Z,29.15
2022-08-09T15:13:56.784Z,29.13
2022-08-09T15:16:20.699Z,29.22
2022-08-09T15:18:49.280Z,28.87
2022-08-09T15:21:57.310Z,29.23
2022-08-09T15:24:12.826Z,28.94
2022-08-09T15:26:45.493Z,28.74
2022-08-09T15:30:56.500Z,28.92
2022-08-09T15:32:04.839Z,28.56
2022-08-09T15:34:35.305Z,28.64
2022-08-09T15:37:37.212Z,28.55
2022-08-09T15:40:20.051Z,28.98
2022-08-09T15:42:50.891Z,28.89
2022-08-09T15:45:21.685Z,28.73
2022-08-09T15:48:03.344Z,28.57
2022-08-09T15:50:39.340Z,28.38
2022-08-09T15:53:32.657Z,28.26
2022-08-09T15:58:46.992Z,28.28
2022-08-09T16:01:15.093Z,28.50
2022-08-09T16:03:43.212Z,28.11
2022-08-09T16:06:27.396Z,28.32
2022-08-09T16:09:01.125Z,28.11
2022-08-09T16:11:33.321Z,27.91
2022-08-09T16:14:07.088Z,27.79
2022-08-09T16:16:38.095Z,27.87
2022-08-09T16:19:08.617Z,27.73
2022-08-09T16:21:37.843Z,27.81
2022-08-09T16:24:13.033Z,27.84
2022-08-09T16:26:56.767Z,27.88
2022-08-09T16:29:37.466Z,27.68
2022-08-09T16:32:19.294Z,27.84
2022-08-09T16:34:58.280Z,27.75
2022-08-09T16:37:55.658Z,27.83
2022-08-09T16:40:29.859Z,27.90
2022-08-09T16:43:04.845Z,27.58
2022-08-09T16:45:32.762Z,27.38
2022-08-09T16:48:42.194Z,27.56
2022-08-09T16:50:59.774Z,27.36
2022-08-09T16:53:36.258Z,27.31
2022-08-09T16:56:09.931Z,27.31
2022-08-09T16:58:42.744Z,27.46
2022-08-09T17:01:19.382Z,27.42
2022-08-09T17:03:51.679Z,27.22
2022-08-09T17:06:29.178Z,27.33
2022-08-09T17:09:17.822Z,27.17
2022-08-09T17:11:52.627Z,27.34
2022-08-09T17:14:27.985Z,27.17
2022-08-09T17:17:03.869Z,27.32
2022-08-09T17:20:29.288Z,27.33
2022-08-09T17:22:49.506Z,27.18
2022-08-09T17:25:18.090Z,27.34
2022-08-09T17:27:48.698Z,27.19
2022-08-09T17:30:20.419Z,26.93
2022-08-09T17:32:48.575Z,26.98
2022-08-09T17:35:16.410Z,26.88
2022-08-09T17:38:12.863Z,27.00
2022-08-09T17:40:34.642Z,26.78
2022-08-09T17:43:32.731Z,26.79
2022-08-09T17:46:02.633Z,27.04
2022-08-09T17:48:39.234Z,26.98
2022-08-09T17:51:18.779Z,26.87
2022-08-09T17:53:54.792Z,26.96
2022-08-09T17:56:35.547Z,26.83
2022-08-09T17:59:09.146Z,26.49
2022-08-09T18:02:03.475Z,26.42
2022-08-09T18:04:28.016Z,26.49
2022-08-09T18:06:56.015Z,26.58
2022-08-09T18:09:40.935Z,26.60
2022-08-09T18:12:19.434Z,26.27
2022-08-09T18:14:54.753Z,26.53
2022-08-09T18:18:01.435Z,26.58
2022-08-09T18:20:55.833Z,26.30
2022-08-09T18:23:05.106Z,26.26
2022-08-09T18:25:53.134Z,26.30
2022-08-09T18:30:34.665Z,26.09
2022-08-09T18:31:12.242Z,25.92
2022-08-09T18:33:40.707Z,26.21
2022-08-09T18:36:14.154Z,25.84
2022-08-09T18:38:57.505Z,25.94
2022-08-09T18:41:28.801Z,25.91
2022-08-09T18:43:58.046Z,25.76
2022-08-09T18:46:51.471Z,26.01
2022-08-09T18:49:27.054Z,25.53
2022-08-09T18:51:59.534Z,25.46
2022-08-09T18:54:28.823Z,25.37
2022-08-09T18:57:05.440Z,25.52
2022-08-09T18:59:43.830Z,25.47
2022-08-09T19:02:18.502Z,25.63
2022-08-09T19:05:04.294Z,25.37
2022-08-09T19:07:36.056Z,25.10
2022-08-09T19:10:15.505Z,25.28
2022-08-09T19:13:18.567Z,25.12
2022-08-09T19:15:35.679Z,25.05
2022-08-09T19:18:07.282Z,24.80
2022-08-09T19:20:45.486Z,24.84
2022-08-09T19:24:37.882Z,25.09
2022-08-09T19:26:13.967Z,25.10
2022-08-09T19:28:48.820Z,24.96
2022-08-09T19:31:17.148Z,24.75
2022-08-09T19:33:44.937Z,24.52
2022-08-09T19:36:13.754Z,24.77
2022-08-09T19:38:42.886Z,24.81
2022-08-09T19:41:10.749Z,24.78
2022-08-09T19:44:02.088Z,24.63
2022-08-09T19:46:34.951Z,24.51
2022-08-09T19:50:09.906Z,24.40
2022-08-09T19:51:57.046Z,24.41
2022-08-09T19:54:25.706Z,24.33
2022-08-09T19:56:55.057Z,24.25
2022-08-09T19:59:58.546Z,24.11
2022-08-09T20:02:17.365Z,23.71
2022-08-09T20:05:02.164Z,24.17
2022-08-09T20:07:59.097Z,24.14
2022-08-09T20:10:34.286Z,23.80
2022-08-09T20:13:06.905Z,24.11
2022-08-09T20:16:37.175Z,23.94
2022-08-09T20:18:27.605Z,23.97
2022-08-09T20:20:59.845Z,23.82
2022-08-09T20:23:38.579Z,23.67
2022-08-09T20:26:10.111Z,23.79
2022-08-09T20:28:48.801Z,23.98
2022-08-09T20:31:18.696Z,23.74
2022-08-09T20:33:46.974Z,23.81
2022-08-09T20:36:27.077Z,23.96
2022-08-09T20:39:28.952Z,23.57
2022-08-09T20:41:43.461Z,23.49
2022-08-09T20:44:11.160Z,23.51
2022-08-09T20:46:42.859Z,23.68
2022-08-09T20:49:15.730Z,23.20
2022-08-09T20:51:50.776Z,23.58
2022-08-09T20:54:19.103Z,23.34
2022-08-09T20:56:49.531Z,23.30
2022-08-09T20:59:50.134Z,23.50
2022-08-09T21:02:18.327Z,23.28
2022-08-09T21:05:54.935Z,23.49
2022-08-09T21:07:40.433Z,23.21
2022-08-09T21:10:11.551Z,23.42
2022-08-09T21:12:39.550Z,23.52
2022-08-09T21:15:12.768Z,22.83
2022-08-09T21:18:11.875Z,23.18
2022-08-09T21:20:30.712Z,23.07
2022-08-09T21:23:00.472Z,22.80
2022-08-09T21:25:55.706Z,23.29
2022-08-09T21:28:36.098Z,23.11
2022-08-09T21:31:18.181Z,22.79
2022-08-09T21:33:50.483Z,22.87
2022-08-09T21:36:20.920Z,22.91
2022-08-09T21:38:57.430Z,22.75
2022-08-09T21:42:05.569Z,23.03
2022-08-09T21:44:34.764Z,22.75
2022-08-09T21:47:07.486Z,22.76
2022-08-09T21:49:39.571Z,22.52
2022-08-09T21:52:14.440Z,22.79
2022-08-09T21:54:50.655Z,22.42
2022-08-09T21:57:38.943Z,22.28
2022-08-09T22:00:16.431Z,22.15
2022-08-09T22:02:44.383Z,22.15
2022-08-09T22:05:35.375Z,22.24
2022-08-09T22:08:13.856Z,22.24
2022-08-09T22:11:50.437Z,21.96
2022-08-09T22:13:34.850Z,22.18
2022-08-09T22:16:08.575Z,22.33
2022-08-09T22:18:38.576Z,22.29
2022-08-09T22:21:22.199Z,22.50
2022-08-09T22:23:59.212Z,22.13
2022-08-09T22:26:35.164Z,22.17
2022-08-09T22:29:10.415Z,22.28
2022-08-09T22:31:50.344Z,22.23
2022-08-09T22:34:28.572Z,22.21
2022-08-09T22:36:58.422Z,21.87
2022-08-09T22:39:55.512Z,21.88
2022-08-09T22:42:21.364Z,21.70
2022-08-09T22:45:00.423Z,21.57
2022-08-09T22:48:10.775Z,21.70
2022-08-09T22:50:32.689Z,21.91
2022-08-09T22:53:03.497Z,21.72
2022-08-09T22:56:00.674Z,21.61
2022-08-09T22:58:32.499Z,21.48
2022-08-09T23:01:06.015Z,21.57
2022-08-09T23:04:05.645Z,21.89
2022-08-09T23:06:35.689Z,21.69
2022-08-09T23:09:04.848Z,21.40
2022-08-09T23:11:32.845Z,21.82
2022-08-09T23:14:00.607Z,21.82
2022-08-09T23:16:28.221Z,21.46
2022-08-09T23:18:56.180Z,21.44
2022-08-09T23:21:25.081Z,21.44
2022-08-09T23:24:05.422Z,21.40
2022-08-09T23:26:36.036Z,21.59
2022-08-09T23:29:11.297Z,21.43
2022-08-09T23:31:39.280Z,21.62
2022-08-09T23:34:07.407Z,21.74
2022-08-09T23:36:36.037Z,21.68
2022-08-09T23:39:05.595Z,21.15
2022-08-09T23:41:34.127Z,21.23
2022-08-09T23:44:03.211Z,21.53
2022-08-09T23:46:31.995Z,21.56
2022-08-09T23:49:00.804Z,21.46
2022-08-09T23:51:28.813Z,21.48
2022-08-09T23:54:02.210Z,21.55
2022-08-09T23:56:53.723Z,21.57
2022-08-09T23:59:21.690Z,21.13
